sensor_id;sensor_type;location;lat;lon;timestamp;pressure;altitude;pressure_sealevel;temperature;humidity
54042;BME280;41156;51.508;5.406;2023-04-07T00:00:00;101330.31;;;8.25;100.00
54042;BME280;41156;51.508;5.406;2023-04-07T00:03:04;101333.00;;;8.25;100.00
54042;BME280;41156;51.508;5.406;2023-04-07T00:06:06;101333.00;;;8.25;100.00
54042;BME280;41156;51.508;5.406;2023-04-07T00:09:06;101330.31;;;8.25;100.00
54042;BME280;41156;51.508;5.406;2023-04-07T00:12:07;101328.44;;;8.25;100.00
54042;BME280;41156;51.508;5.406;2023-04-07T00:15:07;101327.63;;;8.25;100.00
54042;BME280;41156;51.508;5.406;2023-04-07T00:18:08;101327.16;;;8.21;100.00
54042;BME280;41156;51.508;5.406;2023-04-07T00:21:08;101333.38;;;8.22;100.00
54042;BME280;41156;51.508;5.406;2023-04-07T00:24:08;101335.41;;;8.20;100.00
54042;BME280;41156;51.508;5.406;2023-04-07T00:27:09;101330.22;;;8.18;100.00
54042;BME280;41156;51.508;5.406;2023-04-07T00:30:10;101343.31;;;8.21;100.00
54042;BME280;41156;51.508;5.406;2023-04-07T00:33:10;101344.50;;;8.19;100.00
54042;BME280;41156;51.508;5.406;2023-04-07T00:36:11;101348.69;;;8.21;100.00
54042;BME280;41156;51.508;5.406;2023-04-07T00:39:11;101336.88;;;8.22;100.00
54042;BME280;41156;51.508;5.406;2023-04-07T00:42:11;101333.38;;;8.22;100.00
54042;BME280;41156;51.508;5.406;2023-04-07T00:45:12;101333.38;;;8.22;100.00
54042;BME280;41156;51.508;5.406;2023-04-07T00:48:12;101336.44;;;8.19;100.00
54042;BME280;41156;51.508;5.406;2023-04-07T00:51:12;101329.38;;;8.18;100.00
54042;BME280;41156;51.508;5.406;2023-04-07T00:54:13;101329.78;;;8.14;100.00
54042;BME280;41156;51.508;5.406;2023-04-07T00:57:14;101338.03;;;8.13;100.00
54042;BME280;41156;51.508;5.406;2023-04-07T01:00:15;101332.81;;;8.11;100.00
54042;BME280;41156;51.508;5.406;2023-04-07T01:03:25;101332.19;;;8.09;100.00
54042;BME280;41156;51.508;5.406;2023-04-07T01:06:33;101343.78;;;8.10;100.00
54042;BME280;41156;51.508;5.406;2023-04-07T01:09:39;101338.56;;;8.08;100.00
54042;BME280;41156;51.508;5.406;2023-04-07T01:15:51;101332.38;;;8.08;100.00
54042;BME280;41156;51.508;5.406;2023-04-07T01:19:27;101345.66;;;8.09;100.00
54042;BME280;41156;51.508;5.406;2023-04-07T01:22:38;101342.75;;;8.11;100.00
54042;BME280;41156;51.508;5.406;2023-04-07T01:26:14;101332.81;;;8.11;100.00
54042;BME280;41156;51.508;5.406;2023-04-07T01:29:38;101343.59;;;8.11;100.00
54042;BME280;41156;51.508;5.406;2023-04-07T01:32:43;101343.59;;;8.11;100.00
54042;BME280;41156;51.508;5.406;2023-04-07T01:35:45;101348.34;;;8.09;100.00
54042;BME280;41156;51.508;5.406;2023-04-07T01:38:47;101347.47;;;8.09;100.00
54042;BME280;41156;51.508;5.406;2023-04-07T01:41:50;101347.66;;;8.07;100.00
54042;BME280;41156;51.508;5.406;2023-04-07T01:44:52;101347.03;;;8.05;100.00
54042;BME280;41156;51.508;5.406;2023-04-07T01:47:53;101358.78;;;8.04;100.00
54042;BME280;41156;51.508;5.406;2023-04-07T01:50:54;101357.16;;;8.03;100.00
54042;BME280;41156;51.508;5.406;2023-04-07T01:53:55;101356.50;;;8.01;100.00
54042;BME280;41156;51.508;5.406;2023-04-07T01:56:56;101362.25;;;7.98;100.00
54042;BME280;41156;51.508;5.406;2023-04-07T01:59:57;101365.31;;;7.95;100.00
54042;BME280;41156;51.508;5.406;2023-04-07T02:03:04;101372.38;;;7.96;100.00
54042;BME280;41156;51.508;5.406;2023-04-07T02:06:07;101378.13;;;7.93;100.00
54042;BME280;41156;51.508;5.406;2023-04-07T02:09:10;101373.75;;;7.92;100.00
54042;BME280;41156;51.508;5.406;2023-04-07T02:12:13;101371.41;;;7.89;100.00
54042;BME280;41156;51.508;5.406;2023-04-07T02:15:15;101366.22;;;7.87;100.00
54042;BME280;41156;51.508;5.406;2023-04-07T02:18:16;101366.22;;;7.87;100.00
54042;BME280;41156;51.508;5.406;2023-04-07T02:21:18;101368.06;;;7.87;100.00
54042;BME280;41156;51.508;5.406;2023-04-07T02:24:20;101366.56;;;7.84;100.00
54042;BME280;41156;51.508;5.406;2023-04-07T02:27:21;101363.06;;;7.84;100.00
54042;BME280;41156;51.508;5.406;2023-04-07T02:30:21;101367.81;;;7.82;100.00
54042;BME280;41156;51.508;5.406;2023-04-07T02:33:22;101358.03;;;7.81;100.00
54042;BME280;41156;51.508;5.406;2023-04-07T02:36:22;101356.38;;;7.80;100.00
54042;BME280;41156;51.508;5.406;2023-04-07T02:39:22;101359.44;;;7.76;100.00
54042;BME280;41156;51.508;5.406;2023-04-07T02:42:23;101363.78;;;7.77;100.00
54042;BME280;41156;51.508;5.406;2023-04-07T02:45:24;101355.91;;;7.76;100.00
54042;BME280;41156;51.508;5.406;2023-04-07T02:48:24;101363.16;;;7.75;100.00
54042;BME280;41156;51.508;5.406;2023-04-07T02:51:24;101360.44;;;7.75;100.00
54042;BME280;41156;51.508;5.406;2023-04-07T02:54:26;101361.50;;;7.74;100.00
54042;BME280;41156;51.508;5.406;2023-04-07T02:57:26;101360.44;;;7.75;100.00
54042;BME280;41156;51.508;5.406;2023-04-07T03:00:26;101365.84;;;7.75;100.00
54042;BME280;41156;51.508;5.406;2023-04-07T03:03:27;101371.03;;;7.77;100.00
54042;BME280;41156;51.508;5.406;2023-04-07T03:06:27;101367.53;;;7.76;100.00
54042;BME280;41156;51.508;5.406;2023-04-07T03:09:27;101368.34;;;7.77;100.00
54042;BME280;41156;51.508;5.406;2023-04-07T03:12:28;101372.91;;;7.76;100.00
54042;BME280;41156;51.508;5.406;2023-04-07T03:15:28;101375.41;;;7.78;100.00
54042;BME280;41156;51.508;5.406;2023-04-07T03:18:28;101368.16;;;7.78;100.00
54042;BME280;41156;51.508;5.406;2023-04-07T03:21:28;101375.22;;;7.80;100.00
54042;BME280;41156;51.508;5.406;2023-04-07T03:24:30;101373.34;;;7.80;100.00
54042;BME280;41156;51.508;5.406;2023-04-07T03:27:31;101370.84;;;7.78;100.00
54042;BME280;41156;51.508;5.406;2023-04-07T03:30:31;101365.47;;;7.78;100.00
54042;BME280;41156;51.508;5.406;2023-04-07T03:33:31;101373.53;;;7.78;100.00
54042;BME280;41156;51.508;5.406;2023-04-07T03:36:32;101367.34;;;7.78;100.00
54042;BME280;41156;51.508;5.406;2023-04-07T03:39:32;101369.16;;;7.77;100.00
54042;BME280;41156;51.508;5.406;2023-04-07T03:42:32;101370.38;;;7.75;100.00
54042;BME280;41156;51.508;5.406;2023-04-07T03:45:32;101367.06;;;7.73;100.00
54042;BME280;41156;51.508;5.406;2023-04-07T03:48:33;101377.81;;;7.73;100.00
54042;BME280;41156;51.508;5.406;2023-04-07T03:51:33;101368.25;;;7.70;100.00
54042;BME280;41156;51.508;5.406;2023-04-07T03:54:33;101371.75;;;7.71;100.00
54042;BME280;41156;51.508;5.406;2023-04-07T03:57:34;101375.84;;;7.67;100.00
54042;BME280;41156;51.508;5.406;2023-04-07T04:00:34;101381.41;;;7.65;100.00
54042;BME280;41156;51.508;5.406;2023-04-07T04:03:35;101381.59;;;7.64;100.00
54042;BME280;41156;51.508;5.406;2023-04-07T04:06:35;101381.59;;;7.64;100.00
54042;BME280;41156;51.508;5.406;2023-04-07T04:09:35;101382.59;;;7.63;100.00
54042;BME280;41156;51.508;5.406;2023-04-07T04:12:36;101382.13;;;7.59;100.00
54042;BME280;41156;51.508;5.406;2023-04-07T04:15:36;101380.47;;;7.58;100.00
54042;BME280;41156;51.508;5.406;2023-04-07T04:18:36;101377.78;;;7.58;100.00
54042;BME280;41156;51.508;5.406;2023-04-07T04:21:36;101379.16;;;7.54;100.00
54042;BME280;41156;51.508;5.406;2023-04-07T04:24:37;101374.97;;;7.51;100.00
54042;BME280;41156;51.508;5.406;2023-04-07T04:27:37;101376.00;;;7.50;100.00
54042;BME280;41156;51.508;5.406;2023-04-07T04:30:37;101379.91;;;7.48;100.00
54042;BME280;41156;51.508;5.406;2023-04-07T04:33:38;101380.91;;;7.47;100.00
54042;BME280;41156;51.508;5.406;2023-04-07T04:36:38;101387.28;;;7.46;100.00
54042;BME280;41156;51.508;5.406;2023-04-07T04:39:40;101389.97;;;7.46;100.00
54042;BME280;41156;51.508;5.406;2023-04-07T04:42:40;101388.13;;;7.46;100.00
54042;BME280;41156;51.508;5.406;2023-04-07T04:45:40;101388.13;;;7.46;100.00
54042;BME280;41156;51.508;5.406;2023-04-07T04:48:41;101393.34;;;7.48;100.00
54042;BME280;41156;51.508;5.406;2023-04-07T04:51:41;101404.09;;;7.48;100.00
54042;BME280;41156;51.508;5.406;2023-04-07T04:54:41;101403.41;;;7.46;100.00
54042;BME280;41156;51.508;5.406;2023-04-07T04:57:41;101408.97;;;7.44;100.00
54042;BME280;41156;51.508;5.406;2023-04-07T05:00:42;101408.31;;;7.42;100.00
54042;BME280;41156;51.508;5.406;2023-04-07T05:03:43;101412.00;;;7.41;100.00
54042;BME280;41156;51.508;5.406;2023-04-07T05:06:43;101417.59;;;7.39;100.00
54042;BME280;41156;51.508;5.406;2023-04-07T05:09:43;101422.78;;;7.41;100.00
54042;BME280;41156;51.508;5.406;2023-04-07T05:12:44;101418.25;;;7.41;100.00
54042;BME280;41156;51.508;5.406;2023-04-07T05:15:44;101417.22;;;7.43;100.00
54042;BME280;41156;51.508;5.406;2023-04-07T05:18:45;101423.28;;;7.45;100.00
54042;BME280;41156;51.508;5.406;2023-04-07T05:21:45;101431.34;;;7.45;100.00
54042;BME280;41156;51.508;5.406;2023-04-07T05:24:45;101436.03;;;7.43;100.00
54042;BME280;41156;51.508;5.406;2023-04-07T05:27:46;101431.69;;;7.41;100.00
54042;BME280;41156;51.508;5.406;2023-04-07T05:30:47;101441.41;;;7.43;100.00
54042;BME280;41156;51.508;5.406;2023-04-07T05:33:47;101437.72;;;7.44;100.00
54042;BME280;41156;51.508;5.406;2023-04-07T05:36:47;101438.19;;;7.47;100.00
54042;BME280;41156;51.508;5.406;2023-04-07T05:39:47;101442.38;;;7.50;100.00
54042;BME280;41156;51.508;5.406;2023-04-07T05:42:48;101447.59;;;7.51;100.00
54042;BME280;41156;51.508;5.406;2023-04-07T05:45:48;101449.44;;;7.51;100.00
54042;BME280;41156;51.508;5.406;2023-04-07T05:48:48;101440.34;;;7.52;100.00
54042;BME280;41156;51.508;5.406;2023-04-07T05:51:49;101443.34;;;7.57;100.00
54042;BME280;41156;51.508;5.406;2023-04-07T05:54:49;101447.72;;;7.58;100.00
54042;BME280;41156;51.508;5.406;2023-04-07T05:57:50;101443.81;;;7.60;100.00
54042;BME280;41156;51.508;5.406;2023-04-07T06:00:50;101442.63;;;7.63;100.00
54042;BME280;41156;51.508;5.406;2023-04-07T06:03:50;101443.28;;;7.65;100.00
54042;BME280;41156;51.508;5.406;2023-04-07T06:06:50;101450.97;;;7.68;100.00
54042;BME280;41156;51.508;5.406;2023-04-07T06:09:54;101455.16;;;7.71;100.00
54042;BME280;41156;51.508;5.406;2023-04-07T06:12:54;101457.31;;;7.75;100.00
54042;BME280;41156;51.508;5.406;2023-04-07T06:15:55;101459.63;;;7.78;100.00
54042;BME280;41156;51.508;5.406;2023-04-07T06:18:56;101462.78;;;7.82;100.00
54042;BME280;41156;51.508;5.406;2023-04-07T06:21:56;101458.75;;;7.86;100.00
54042;BME280;41156;51.508;5.406;2023-04-07T06:24:57;101465.78;;;7.87;100.00
54042;BME280;41156;51.508;5.406;2023-04-07T06:27:57;101466.47;;;7.89;100.00
54042;BME280;41156;51.508;5.406;2023-04-07T06:30:57;101468.94;;;7.91;100.00
54042;BME280;41156;51.508;5.406;2023-04-07T06:33:58;101477.50;;;7.94;100.00
54042;BME280;41156;51.508;5.406;2023-04-07T06:36:58;101478.69;;;7.92;100.00
54042;BME280;41156;51.508;5.406;2023-04-07T06:39:58;101480.03;;;7.96;100.00
54042;BME280;41156;51.508;5.406;2023-04-07T06:42:58;101483.81;;;8.02;100.00
54042;BME280;41156;51.508;5.406;2023-04-07T06:45:59;101479.72;;;8.06;100.00
54042;BME280;41156;51.508;5.406;2023-04-07T06:48:59;101484.41;;;8.12;100.00
54042;BME280;41156;51.508;5.406;2023-04-07T06:51:59;101485.72;;;8.16;100.00
54042;BME280;41156;51.508;5.406;2023-04-07T06:55:00;101493.69;;;8.24;100.00
54042;BME280;41156;51.508;5.406;2023-04-07T06:58:00;101482.56;;;8.27;100.00
54042;BME280;41156;51.508;5.406;2023-04-07T07:01:01;101488.91;;;8.34;100.00
54042;BME280;41156;51.508;5.406;2023-04-07T07:04:02;101503.28;;;8.42;100.00
54042;BME280;41156;51.508;5.406;2023-04-07T07:07:02;101505.34;;;8.40;100.00
54042;BME280;41156;51.508;5.406;2023-04-07T07:10:03;101505.84;;;8.43;100.00
54042;BME280;41156;51.508;5.406;2023-04-07T07:13:03;101505.94;;;8.50;100.00
54042;BME280;41156;51.508;5.406;2023-04-07T07:16:03;101508.91;;;8.55;100.00
54042;BME280;41156;51.508;5.406;2023-04-07T07:19:04;101509.63;;;8.64;100.00
54042;BME280;41156;51.508;5.406;2023-04-07T07:22:04;101499.59;;;8.73;100.00
54042;BME280;41156;51.508;5.406;2023-04-07T07:25:05;101512.41;;;8.85;100.00
54042;BME280;41156;51.508;5.406;2023-04-07T07:28:06;101513.69;;;9.19;100.00
54042;BME280;41156;51.508;5.406;2023-04-07T07:31:10;101511.94;;;9.48;100.00
54042;BME280;41156;51.508;5.406;2023-04-07T07:34:12;101514.97;;;9.60;100.00
54042;BME280;41156;51.508;5.406;2023-04-07T07:37:12;101522.22;;;9.59;100.00
54042;BME280;41156;51.508;5.406;2023-04-07T07:40:13;101530.59;;;9.65;100.00
54042;BME280;41156;51.508;5.406;2023-04-07T07:43:13;101539.38;;;9.73;100.00
54042;BME280;41156;51.508;5.406;2023-04-07T07:46:14;101536.94;;;9.78;100.00
54042;BME280;41156;51.508;5.406;2023-04-07T07:49:15;101535.25;;;9.77;100.00
54042;BME280;41156;51.508;5.406;2023-04-07T07:52:15;101547.03;;;9.70;100.00
54042;BME280;41156;51.508;5.406;2023-04-07T07:55:15;101540.72;;;9.62;100.00
54042;BME280;41156;51.508;5.406;2023-04-07T07:58:16;101543.66;;;9.46;100.00
54042;BME280;41156;51.508;5.406;2023-04-07T08:01:16;101543.78;;;9.38;100.00
54042;BME280;41156;51.508;5.406;2023-04-07T08:04:16;101541.91;;;9.38;100.00
54042;BME280;41156;51.508;5.406;2023-04-07T08:07:17;101550.06;;;9.45;100.00
54042;BME280;41156;51.508;5.406;2023-04-07T08:10:17;101552.22;;;9.50;100.00
54042;BME280;41156;51.508;5.406;2023-04-07T08:13:19;101548.72;;;9.56;100.00
54042;BME280;41156;51.508;5.406;2023-04-07T08:16:19;101561.91;;;9.66;100.00
54042;BME280;41156;51.508;5.406;2023-04-07T08:19:21;101558.72;;;9.77;100.00
54042;BME280;41156;51.508;5.406;2023-04-07T08:22:21;101565.69;;;9.86;100.00
54042;BME280;41156;51.508;5.406;2023-04-07T08:25:21;101566.56;;;9.93;100.00
54042;BME280;41156;51.508;5.406;2023-04-07T08:28:23;101569.66;;;9.90;100.00
54042;BME280;41156;51.508;5.406;2023-04-07T08:31:23;101572.84;;;9.79;100.00
54042;BME280;41156;51.508;5.406;2023-04-07T08:34:24;101576.16;;;9.74;100.00
54042;BME280;41156;51.508;5.406;2023-04-07T08:37:24;101580.06;;;9.72;100.00
54042;BME280;41156;51.508;5.406;2023-04-07T08:40:25;101592.66;;;9.65;100.00
54042;BME280;41156;51.508;5.406;2023-04-07T08:43:25;101588.31;;;9.49;100.00
54042;BME280;41156;51.508;5.406;2023-04-07T08:46:26;101582.94;;;9.34;100.00
54042;BME280;41156;51.508;5.406;2023-04-07T08:49:30;101588.78;;;9.22;100.00
54042;BME280;41156;51.508;5.406;2023-04-07T08:52:34;101592.00;;;9.11;100.00
54042;BME280;41156;51.508;5.406;2023-04-07T08:55:39;101593.00;;;9.10;100.00
54042;BME280;41156;51.508;5.406;2023-04-07T08:58:39;101594.97;;;9.16;100.00
54042;BME280;41156;51.508;5.406;2023-04-07T09:01:40;101598.56;;;9.23;100.00
54042;BME280;41156;51.508;5.406;2023-04-07T09:04:42;101598.38;;;9.40;100.00
54042;BME280;41156;51.508;5.406;2023-04-07T09:07:43;101606.78;;;9.67;100.00
54042;BME280;41156;51.508;5.406;2023-04-07T09:10:43;101603.28;;;9.88;100.00
54042;BME280;41156;51.508;5.406;2023-04-07T09:13:44;101608.22;;;10.06;100.00
54042;BME280;41156;51.508;5.406;2023-04-07T09:16:45;101614.66;;;10.05;100.00
54042;BME280;41156;51.508;5.406;2023-04-07T09:19:47;101611.84;;;10.13;100.00
54042;BME280;41156;51.508;5.406;2023-04-07T09:22:47;101615.03;;;10.23;100.00
54042;BME280;41156;51.508;5.406;2023-04-07T09:25:49;101607.81;;;10.30;100.00
54042;BME280;41156;51.508;5.406;2023-04-07T09:28:59;101616.97;;;10.29;100.00
54042;BME280;41156;51.508;5.406;2023-04-07T09:32:01;101615.09;;;10.30;100.00
54042;BME280;41156;51.508;5.406;2023-04-07T09:35:02;101613.91;;;10.32;100.00
54042;BME280;41156;51.508;5.406;2023-04-07T09:38:07;101621.53;;;10.29;100.00
54042;BME280;41156;51.508;5.406;2023-04-07T09:41:15;101612.59;;;10.28;100.00
54042;BME280;41156;51.508;5.406;2023-04-07T09:44:15;101613.81;;;10.47;100.00
54042;BME280;41156;51.508;5.406;2023-04-07T09:47:16;101618.25;;;10.55;100.00
54042;BME280;41156;51.508;5.406;2023-04-07T09:50:30;101607.94;;;10.65;100.00
54042;BME280;41156;51.508;5.406;2023-04-07T09:53:49;101618.13;;;10.63;100.00
54042;BME280;41156;51.508;5.406;2023-04-07T09:56:50;101617.88;;;10.58;100.00
54042;BME280;41156;51.508;5.406;2023-04-07T09:59:50;101622.13;;;10.46;100.00
54042;BME280;41156;51.508;5.406;2023-04-07T10:02:51;101620.41;;;10.38;100.00
54042;BME280;41156;51.508;5.406;2023-04-07T10:05:52;101617.81;;;10.30;100.00
54042;BME280;41156;51.508;5.406;2023-04-07T10:08:52;101628.03;;;10.13;100.00
54042;BME280;41156;51.508;5.406;2023-04-07T10:11:55;101625.84;;;10.02;100.00
54042;BME280;41156;51.508;5.406;2023-04-07T10:14:57;101636.47;;;10.03;100.00
54042;BME280;41156;51.508;5.406;2023-04-07T10:17:59;101633.56;;;10.05;100.00
54042;BME280;41156;51.508;5.406;2023-04-07T10:21:01;101635.63;;;10.03;100.00
54042;BME280;41156;51.508;5.406;2023-04-07T10:24:12;101634.78;;;10.02;100.00
54042;BME280;41156;51.508;5.406;2023-04-07T10:27:22;101646.81;;;9.99;100.00
54042;BME280;41156;51.508;5.406;2023-04-07T10:30:25;101648.09;;;10.04;100.00
54042;BME280;41156;51.508;5.406;2023-04-07T10:33:53;101647.66;;;10.22;100.00
54042;BME280;41156;51.508;5.406;2023-04-07T10:37:11;101648.31;;;10.45;100.00
54042;BME280;41156;51.508;5.406;2023-04-07T10:43:37;101663.53;;;10.74;100.00
54042;BME280;41156;51.508;5.406;2023-04-07T10:50:14;101659.44;;;10.85;100.00
54042;BME280;41156;51.508;5.406;2023-04-07T10:53:16;101663.16;;;10.78;100.00
54042;BME280;41156;51.508;5.406;2023-04-07T10:56:16;101667.78;;;10.62;100.00
54042;BME280;41156;51.508;5.406;2023-04-07T10:59:16;101661.31;;;10.57;100.00
54042;BME280;41156;51.508;5.406;2023-04-07T11:05:24;101662.34;;;10.84;100.00
54042;BME280;41156;51.508;5.406;2023-04-07T11:08:32;101660.59;;;10.98;100.00
54042;BME280;41156;51.508;5.406;2023-04-07T11:11:37;101662.13;;;11.14;100.00
54042;BME280;41156;51.508;5.406;2023-04-07T11:14:37;101671.97;;;11.21;100.00
54042;BME280;41156;51.508;5.406;2023-04-07T11:17:39;101669.22;;;11.15;100.00
54042;BME280;41156;51.508;5.406;2023-04-07T11:20:46;101673.72;;;11.01;100.00
54042;BME280;41156;51.508;5.406;2023-04-07T11:23:47;101674.34;;;11.03;100.00
54042;BME280;41156;51.508;5.406;2023-04-07T11:26:48;101668.78;;;11.11;100.00
54042;BME280;41156;51.508;5.406;2023-04-07T11:29:48;101671.81;;;11.29;100.00
54042;BME280;41156;51.508;5.406;2023-04-07T11:32:50;101669.78;;;11.38;100.00
54042;BME280;41156;51.508;5.406;2023-04-07T11:35:53;101673.09;;;11.40;100.00
54042;BME280;41156;51.508;5.406;2023-04-07T11:38:54;101670.59;;;11.39;100.00
54042;BME280;41156;51.508;5.406;2023-04-07T11:41:56;101678.06;;;11.30;100.00
54042;BME280;41156;51.508;5.406;2023-04-07T11:44:56;101682.56;;;11.16;100.00
54042;BME280;41156;51.508;5.406;2023-04-07T11:47:57;101683.13;;;11.11;100.00
54042;BME280;41156;51.508;5.406;2023-04-07T11:50:58;101675.81;;;11.05;100.00
54042;BME280;41156;51.508;5.406;2023-04-07T11:53:59;101688.22;;;10.93;100.00
54042;BME280;41156;51.508;5.406;2023-04-07T11:56:59;101686.66;;;10.84;100.00
54042;BME280;41156;51.508;5.406;2023-04-07T12:00:07;101684.53;;;10.72;100.00
54042;BME280;41156;51.508;5.406;2023-04-07T12:03:10;101691.72;;;10.65;100.00
54042;BME280;41156;51.508;5.406;2023-04-07T12:06:25;101699.19;;;10.63;100.00
54042;BME280;41156;51.508;5.406;2023-04-07T12:09:30;101694.88;;;10.69;100.00
54042;BME280;41156;51.508;5.406;2023-04-07T12:12:31;101695.34;;;10.72;100.00
54042;BME280;41156;51.508;5.406;2023-04-07T12:15:32;101705.25;;;10.65;100.00
54042;BME280;41156;51.508;5.406;2023-04-07T12:18:32;101700.88;;;10.64;100.00
54042;BME280;41156;51.508;5.406;2023-04-07T12:21:32;101702.78;;;10.70;100.00
54042;BME280;41156;51.508;5.406;2023-04-07T12:24:33;101709.16;;;10.84;100.00
54042;BME280;41156;51.508;5.406;2023-04-07T12:27:33;101710.28;;;10.97;100.00
54042;BME280;41156;51.508;5.406;2023-04-07T12:30:33;101708.03;;;11.00;100.00
54042;BME280;41156;51.508;5.406;2023-04-07T12:33:34;101719.47;;;11.02;100.00
54042;BME280;41156;51.508;5.406;2023-04-07T12:36:34;101722.06;;;10.89;100.00
54042;BME280;41156;51.508;5.406;2023-04-07T12:39:35;101723.78;;;10.68;100.00
54042;BME280;41156;51.508;5.406;2023-04-07T12:42:35;101717.47;;;10.61;100.00
54042;BME280;41156;51.508;5.406;2023-04-07T12:45:35;101724.84;;;10.74;100.00
54042;BME280;41156;51.508;5.406;2023-04-07T12:48:36;101720.22;;;10.89;100.00
54042;BME280;41156;51.508;5.406;2023-04-07T12:51:36;101727.44;;;11.10;100.00
54042;BME280;41156;51.508;5.406;2023-04-07T12:54:38;101722.41;;;11.36;100.00
54042;BME280;41156;51.508;5.406;2023-04-07T12:57:39;101732.06;;;11.45;100.00
54042;BME280;41156;51.508;5.406;2023-04-07T13:00:39;101731.63;;;11.41;100.00
54042;BME280;41156;51.508;5.406;2023-04-07T13:03:40;101735.84;;;11.22;100.00
54042;BME280;41156;51.508;5.406;2023-04-07T13:06:41;101737.13;;;10.98;100.00
54042;BME280;41156;51.508;5.406;2023-04-07T13:09:41;101741.41;;;10.86;100.00
54042;BME280;41156;51.508;5.406;2023-04-07T13:12:44;101744.00;;;10.72;100.00
54042;BME280;41156;51.508;5.406;2023-04-07T13:15:44;101736.03;;;10.64;100.00
54042;BME280;41156;51.508;5.406;2023-04-07T13:18:45;101745.53;;;10.60;100.00
54042;BME280;41156;51.508;5.406;2023-04-07T13:21:45;101746.69;;;10.51;100.00
54042;BME280;41156;51.508;5.406;2023-04-07T13:24:46;101745.97;;;10.42;100.00
54042;BME280;41156;51.508;5.406;2023-04-07T13:27:46;101749.53;;;10.43;100.00
54042;BME280;41156;51.508;5.406;2023-04-07T13:30:46;101753.13;;;10.50;100.00
54042;BME280;41156;51.508;5.406;2023-04-07T13:33:46;101761.47;;;10.55;100.00
54042;BME280;41156;51.508;5.406;2023-04-07T13:36:47;101759.81;;;10.54;100.00
54042;BME280;41156;51.508;5.406;2023-04-07T13:39:47;101757.50;;;10.51;100.00
54042;BME280;41156;51.508;5.406;2023-04-07T13:42:47;101758.91;;;10.47;100.00
54042;BME280;41156;51.508;5.406;2023-04-07T13:45:48;101756.50;;;10.37;100.00
54042;BME280;41156;51.508;5.406;2023-04-07T13:48:48;101762.47;;;10.32;100.00
54042;BME280;41156;51.508;5.406;2023-04-07T13:51:48;101761.81;;;10.30;100.00
54042;BME280;41156;51.508;5.406;2023-04-07T13:54:48;101756.31;;;10.39;100.00
54042;BME280;41156;51.508;5.406;2023-04-07T13:57:50;101752.03;;;10.44;100.00
54042;BME280;41156;51.508;5.406;2023-04-07T14:00:50;101754.31;;;10.47;100.00
54042;BME280;41156;51.508;5.406;2023-04-07T14:03:50;101752.47;;;10.48;100.00
54042;BME280;41156;51.508;5.406;2023-04-07T14:06:52;101755.63;;;10.51;100.00
54042;BME280;41156;51.508;5.406;2023-04-07T14:09:52;101759.41;;;10.57;100.00
54042;BME280;41156;51.508;5.406;2023-04-07T14:12:53;101759.22;;;10.59;100.00
54042;BME280;41156;51.508;5.406;2023-04-07T14:15:53;101756.16;;;10.62;100.00
54042;BME280;41156;51.508;5.406;2023-04-07T14:18:54;101755.31;;;10.61;100.00
54042;BME280;41156;51.508;5.406;2023-04-07T14:21:55;101749.47;;;10.58;100.00
54042;BME280;41156;51.508;5.406;2023-04-07T14:24:55;101747.41;;;10.60;100.00
54042;BME280;41156;51.508;5.406;2023-04-07T14:27:56;101752.38;;;10.56;100.00
54042;BME280;41156;51.508;5.406;2023-04-07T14:30:56;101757.22;;;10.46;100.00
54042;BME280;41156;51.508;5.406;2023-04-07T14:33:57;101752.59;;;10.40;100.00
54042;BME280;41156;51.508;5.406;2023-04-07T14:36:57;101747.13;;;10.33;100.00
54042;BME280;41156;51.508;5.406;2023-04-07T14:39:57;101754.75;;;10.29;100.00
54042;BME280;41156;51.508;5.406;2023-04-07T14:42:59;101756.53;;;10.22;100.00
54042;BME280;41156;51.508;5.406;2023-04-07T14:46:00;101762.78;;;10.23;100.00
54042;BME280;41156;51.508;5.406;2023-04-07T14:49:00;101759.22;;;10.22;100.00
54042;BME280;41156;51.508;5.406;2023-04-07T14:52:00;101754.50;;;10.24;100.00
54042;BME280;41156;51.508;5.406;2023-04-07T14:55:01;101767.78;;;10.26;100.00
54042;BME280;41156;51.508;5.406;2023-04-07T14:58:01;101768.81;;;10.25;100.00
54042;BME280;41156;51.508;5.406;2023-04-07T15:01:02;101769.75;;;10.17;100.00
54042;BME280;41156;51.508;5.406;2023-04-07T15:04:02;101770.63;;;10.17;100.00
54042;BME280;41156;51.508;5.406;2023-04-07T15:07:03;101769.13;;;10.15;100.00
54042;BME280;41156;51.508;5.406;2023-04-07T15:10:04;101780.28;;;10.12;100.00
54042;BME280;41156;51.508;5.406;2023-04-07T15:13:05;101780.09;;;10.13;100.00
54042;BME280;41156;51.508;5.406;2023-04-07T15:16:10;101787.19;;;10.14;100.00
54042;BME280;41156;51.508;5.406;2023-04-07T15:19:11;101791.09;;;10.12;100.00
54042;BME280;41156;51.508;5.406;2023-04-07T15:22:11;101784.69;;;10.13;100.00
54042;BME280;41156;51.508;5.406;2023-04-07T15:25:12;101790.91;;;10.13;100.00
54042;BME280;41156;51.508;5.406;2023-04-07T15:28:12;101780.94;;;10.14;100.00
54042;BME280;41156;51.508;5.406;2023-04-07T15:31:12;101775.44;;;10.22;100.00
54042;BME280;41156;51.508;5.406;2023-04-07T15:34:13;101777.00;;;10.31;100.00
54042;BME280;41156;51.508;5.406;2023-04-07T15:37:13;101779.63;;;10.40;100.00
54042;BME280;41156;51.508;5.406;2023-04-07T15:40:13;101777.00;;;10.46;100.00
54042;BME280;41156;51.508;5.406;2023-04-07T15:43:14;101783.69;;;10.50;100.00
54042;BME280;41156;51.508;5.406;2023-04-07T15:46:14;101780.97;;;10.50;100.00
54042;BME280;41156;51.508;5.406;2023-04-07T15:49:14;101786.94;;;10.46;100.00
54042;BME280;41156;51.508;5.406;2023-04-07T15:52:19;101788.56;;;10.40;100.00
54042;BME280;41156;51.508;5.406;2023-04-07T15:55:19;101789.19;;;10.42;100.00